sensor_id;sensor_type;location;lat;lon;timestamp;P1;durP1;ratioP1;P2;durP2;ratioP2
3847;SDS011;1939;48.720;9.166;2023-02-14T00:01:30;47.10;;;20.43;;
3847;SDS011;1939;48.720;9.166;2023-02-14T00:03:55;49.43;;;20.60;;
3847;SDS011;1939;48.720;9.166;2023-02-14T00:06:27;60.57;;;20.20;;
3847;SDS011;1939;48.720;9.166;2023-02-14T00:08:55;56.57;;;20.67;;
3847;SDS011;1939;48.720;9.166;2023-02-14T00:11:21;49.80;;;20.80;;
3847;SDS011;1939;48.720;9.166;2023-02-14T00:13:46;49.00;;;19.77;;
3847;SDS011;1939;48.720;9.166;2023-02-14T00:16:31;51.33;;;23.10;;
3847;SDS011;1939;48.720;9.166;2023-02-14T00:18:56;40.73;;;20.27;;
3847;SDS011;1939;48.720;9.166;2023-02-14T00:21:31;57.33;;;20.90;;
3847;SDS011;1939;48.720;9.166;2023-02-14T00:24:00;47.57;;;20.40;;
3847;SDS011;1939;48.720;9.166;2023-02-14T00:26:25;56.77;;;22.10;;
3847;SDS011;1939;48.720;9.166;2023-02-14T00:28:54;56.63;;;22.97;;
3847;SDS011;1939;48.720;9.166;2023-02-14T00:31:19;56.70;;;24.53;;
3847;SDS011;1939;48.720;9.166;2023-02-14T00:33:45;58.30;;;22.50;;
3847;SDS011;1939;48.720;9.166;2023-02-14T00:36:11;63.47;;;22.80;;
3847;SDS011;1939;48.720;9.166;2023-02-14T00:38:37;53.03;;;21.57;;
3847;SDS011;1939;48.720;9.166;2023-02-14T00:41:02;55.63;;;21.57;;
3847;SDS011;1939;48.720;9.166;2023-02-14T00:43:29;58.83;;;21.27;;
3847;SDS011;1939;48.720;9.166;2023-02-14T00:45:54;50.50;;;21.90;;
3847;SDS011;1939;48.720;9.166;2023-02-14T00:48:22;48.97;;;20.23;;
3847;SDS011;1939;48.720;9.166;2023-02-14T00:50:48;54.90;;;22.23;;
3847;SDS011;1939;48.720;9.166;2023-02-14T00:53:13;43.40;;;20.90;;
3847;SDS011;1939;48.720;9.166;2023-02-14T00:55:39;49.10;;;21.20;;
3847;SDS011;1939;48.720;9.166;2023-02-14T00:58:05;47.20;;;19.73;;
3847;SDS011;1939;48.720;9.166;2023-02-14T01:00:30;46.13;;;20.00;;
3847;SDS011;1939;48.720;9.166;2023-02-14T01:02:55;46.60;;;20.13;;
3847;SDS011;1939;48.720;9.166;2023-02-14T01:05:21;54.50;;;21.17;;
3847;SDS011;1939;48.720;9.166;2023-02-14T01:07:46;49.00;;;20.20;;
3847;SDS011;1939;48.720;9.166;2023-02-14T01:10:11;45.33;;;18.43;;
3847;SDS011;1939;48.720;9.166;2023-02-14T01:12:37;46.47;;;19.13;;
3847;SDS011;1939;48.720;9.166;2023-02-14T01:15:02;47.23;;;19.10;;
3847;SDS011;1939;48.720;9.166;2023-02-14T01:17:29;46.93;;;18.57;;
3847;SDS011;1939;48.720;9.166;2023-02-14T01:19:54;48.50;;;19.53;;
3847;SDS011;1939;48.720;9.166;2023-02-14T01:22:20;36.53;;;17.97;;
3847;SDS011;1939;48.720;9.166;2023-02-14T01:24:45;40.63;;;19.07;;
3847;SDS011;1939;48.720;9.166;2023-02-14T01:27:10;42.20;;;20.20;;
3847;SDS011;1939;48.720;9.166;2023-02-14T01:29:36;42.17;;;17.03;;
3847;SDS011;1939;48.720;9.166;2023-02-14T01:32:01;46.50;;;18.07;;
3847;SDS011;1939;48.720;9.166;2023-02-14T01:34:27;39.70;;;17.70;;
3847;SDS011;1939;48.720;9.166;2023-02-14T01:37:10;43.30;;;17.57;;
3847;SDS011;1939;48.720;9.166;2023-02-14T01:39:36;44.73;;;17.43;;
3847;SDS011;1939;48.720;9.166;2023-02-14T01:42:01;36.23;;;16.67;;
3847;SDS011;1939;48.720;9.166;2023-02-14T01:46:52;43.90;;;19.23;;
3847;SDS011;1939;48.720;9.166;2023-02-14T01:49:22;39.63;;;17.13;;
3847;SDS011;1939;48.720;9.166;2023-02-14T01:51:52;39.80;;;17.30;;
3847;SDS011;1939;48.720;9.166;2023-02-14T01:54:18;45.20;;;17.53;;
3847;SDS011;1939;48.720;9.166;2023-02-14T01:56:46;46.43;;;18.87;;
3847;SDS011;1939;48.720;9.166;2023-02-14T01:59:14;41.53;;;18.53;;
3847;SDS011;1939;48.720;9.166;2023-02-14T02:01:42;42.57;;;18.60;;
3847;SDS011;1939;48.720;9.166;2023-02-14T02:04:10;45.50;;;18.33;;
3847;SDS011;1939;48.720;9.166;2023-02-14T02:06:38;43.40;;;18.03;;
3847;SDS011;1939;48.720;9.166;2023-02-14T02:11:48;45.07;;;20.13;;
3847;SDS011;1939;48.720;9.166;2023-02-14T02:14:14;37.70;;;17.00;;
3847;SDS011;1939;48.720;9.166;2023-02-14T02:19:18;51.50;;;20.33;;
3847;SDS011;1939;48.720;9.166;2023-02-14T02:24:34;46.47;;;20.20;;
3847;SDS011;1939;48.720;9.166;2023-02-14T02:27:23;43.20;;;17.97;;
3847;SDS011;1939;48.720;9.166;2023-02-14T02:35:02;42.83;;;19.70;;
3847;SDS011;1939;48.720;9.166;2023-02-14T02:45:14;40.60;;;18.57;;
3847;SDS011;1939;48.720;9.166;2023-02-14T02:47:53;38.63;;;17.10;;
3847;SDS011;1939;48.720;9.166;2023-02-14T02:55:42;44.23;;;18.37;;
3847;SDS011;1939;48.720;9.166;2023-02-14T03:01:22;49.63;;;17.70;;
3847;SDS011;1939;48.720;9.166;2023-02-14T03:03:51;38.30;;;16.37;;
3847;SDS011;1939;48.720;9.166;2023-02-14T03:06:36;48.20;;;17.73;;
3847;SDS011;1939;48.720;9.166;2023-02-14T03:11:48;45.90;;;19.23;;
3847;SDS011;1939;48.720;9.166;2023-02-14T03:14:18;36.40;;;16.43;;
3847;SDS011;1939;48.720;9.166;2023-02-14T03:19:28;50.53;;;20.50;;
3847;SDS011;1939;48.720;9.166;2023-02-14T03:22:08;45.07;;;19.57;;
3847;SDS011;1939;48.720;9.166;2023-02-14T03:24:40;47.50;;;19.20;;
3847;SDS011;1939;48.720;9.166;2023-02-14T03:27:24;50.90;;;20.43;;
3847;SDS011;1939;48.720;9.166;2023-02-14T03:29:54;42.30;;;18.80;;
3847;SDS011;1939;48.720;9.166;2023-02-14T03:32:30;39.90;;;18.90;;
3847;SDS011;1939;48.720;9.166;2023-02-14T03:35:01;64.63;;;21.90;;
3847;SDS011;1939;48.720;9.166;2023-02-14T03:37:31;45.40;;;18.60;;
3847;SDS011;1939;48.720;9.166;2023-02-14T03:40:05;44.83;;;19.30;;
3847;SDS011;1939;48.720;9.166;2023-02-14T03:42:34;45.97;;;20.43;;
3847;SDS011;1939;48.720;9.166;2023-02-14T03:45:00;46.83;;;19.73;;
3847;SDS011;1939;48.720;9.166;2023-02-14T03:47:29;48.83;;;20.23;;
3847;SDS011;1939;48.720;9.166;2023-02-14T03:49:56;56.13;;;22.20;;
3847;SDS011;1939;48.720;9.166;2023-02-14T03:52:23;45.50;;;18.60;;
3847;SDS011;1939;48.720;9.166;2023-02-14T03:54:51;48.03;;;19.80;;
3847;SDS011;1939;48.720;9.166;2023-02-14T03:57:22;55.03;;;21.17;;
3847;SDS011;1939;48.720;9.166;2023-02-14T03:59:49;62.37;;;21.60;;
3847;SDS011;1939;48.720;9.166;2023-02-14T04:04:57;49.87;;;20.53;;
3847;SDS011;1939;48.720;9.166;2023-02-14T04:07:23;57.37;;;21.73;;
3847;SDS011;1939;48.720;9.166;2023-02-14T04:09:49;65.73;;;23.40;;
3847;SDS011;1939;48.720;9.166;2023-02-14T04:12:17;59.27;;;23.03;;
3847;SDS011;1939;48.720;9.166;2023-02-14T04:14:42;48.40;;;19.87;;
3847;SDS011;1939;48.720;9.166;2023-02-14T04:17:24;52.97;;;22.70;;
3847;SDS011;1939;48.720;9.166;2023-02-14T04:20:08;52.20;;;19.83;;
3847;SDS011;1939;48.720;9.166;2023-02-14T04:22:33;65.50;;;26.20;;
3847;SDS011;1939;48.720;9.166;2023-02-14T04:24:58;61.70;;;24.87;;
3847;SDS011;1939;48.720;9.166;2023-02-14T04:27:24;71.77;;;24.63;;
3847;SDS011;1939;48.720;9.166;2023-02-14T04:29:49;56.93;;;23.23;;
3847;SDS011;1939;48.720;9.166;2023-02-14T04:32:20;57.50;;;21.30;;
3847;SDS011;1939;48.720;9.166;2023-02-14T04:34:45;61.97;;;23.37;;
3847;SDS011;1939;48.720;9.166;2023-02-14T04:37:11;69.03;;;21.70;;
3847;SDS011;1939;48.720;9.166;2023-02-14T04:39:37;61.33;;;21.17;;
3847;SDS011;1939;48.720;9.166;2023-02-14T04:42:02;64.13;;;23.80;;
3847;SDS011;1939;48.720;9.166;2023-02-14T04:44:28;50.27;;;22.47;;
3847;SDS011;1939;48.720;9.166;2023-02-14T04:46:53;55.53;;;21.67;;
3847;SDS011;1939;48.720;9.166;2023-02-14T04:49:19;56.97;;;21.83;;
3847;SDS011;1939;48.720;9.166;2023-02-14T04:51:44;52.27;;;22.80;;
3847;SDS011;1939;48.720;9.166;2023-02-14T04:54:10;53.40;;;20.37;;
3847;SDS011;1939;48.720;9.166;2023-02-14T04:56:35;68.97;;;21.70;;
3847;SDS011;1939;48.720;9.166;2023-02-14T04:59:00;61.27;;;24.17;;
3847;SDS011;1939;48.720;9.166;2023-02-14T05:01:26;66.33;;;25.47;;
3847;SDS011;1939;48.720;9.166;2023-02-14T05:03:51;60.50;;;24.10;;
3847;SDS011;1939;48.720;9.166;2023-02-14T05:06:16;57.40;;;21.87;;
3847;SDS011;1939;48.720;9.166;2023-02-14T05:08:42;57.27;;;23.10;;
3847;SDS011;1939;48.720;9.166;2023-02-14T05:11:07;56.40;;;22.60;;
3847;SDS011;1939;48.720;9.166;2023-02-14T05:13:32;52.00;;;23.10;;
3847;SDS011;1939;48.720;9.166;2023-02-14T05:15:58;54.00;;;20.43;;
3847;SDS011;1939;48.720;9.166;2023-02-14T05:18:24;50.20;;;20.27;;
3847;SDS011;1939;48.720;9.166;2023-02-14T05:20:50;55.40;;;21.70;;
3847;SDS011;1939;48.720;9.166;2023-02-14T05:23:15;56.20;;;22.70;;
3847;SDS011;1939;48.720;9.166;2023-02-14T05:25:41;62.70;;;23.40;;
3847;SDS011;1939;48.720;9.166;2023-02-14T05:28:07;48.93;;;21.70;;
3847;SDS011;1939;48.720;9.166;2023-02-14T05:30:32;55.67;;;22.00;;
3847;SDS011;1939;48.720;9.166;2023-02-14T05:32:59;70.33;;;26.33;;
3847;SDS011;1939;48.720;9.166;2023-02-14T05:35:25;61.97;;;23.77;;
3847;SDS011;1939;48.720;9.166;2023-02-14T05:37:50;52.30;;;21.27;;
3847;SDS011;1939;48.720;9.166;2023-02-14T05:40:16;50.87;;;21.40;;
3847;SDS011;1939;48.720;9.166;2023-02-14T05:42:42;47.17;;;20.50;;
3847;SDS011;1939;48.720;9.166;2023-02-14T05:45:07;59.47;;;24.23;;
3847;SDS011;1939;48.720;9.166;2023-02-14T05:47:33;56.00;;;22.40;;
3847;SDS011;1939;48.720;9.166;2023-02-14T05:49:58;54.70;;;23.23;;
3847;SDS011;1939;48.720;9.166;2023-02-14T05:52:23;55.83;;;21.67;;
3847;SDS011;1939;48.720;9.166;2023-02-14T05:54:49;58.80;;;21.60;;
3847;SDS011;1939;48.720;9.166;2023-02-14T05:57:15;59.13;;;22.87;;
3847;SDS011;1939;48.720;9.166;2023-02-14T05:59:40;56.10;;;21.90;;
3847;SDS011;1939;48.720;9.166;2023-02-14T06:02:06;56.07;;;20.93;;
3847;SDS011;1939;48.720;9.166;2023-02-14T06:04:31;55.43;;;21.73;;
3847;SDS011;1939;48.720;9.166;2023-02-14T06:06:56;51.37;;;21.60;;
3847;SDS011;1939;48.720;9.166;2023-02-14T06:09:22;57.63;;;21.77;;
3847;SDS011;1939;48.720;9.166;2023-02-14T06:11:47;62.97;;;21.73;;
3847;SDS011;1939;48.720;9.166;2023-02-14T06:14:13;57.07;;;22.50;;
3847;SDS011;1939;48.720;9.166;2023-02-14T06:16:38;56.20;;;22.50;;
3847;SDS011;1939;48.720;9.166;2023-02-14T06:19:03;45.53;;;20.07;;
3847;SDS011;1939;48.720;9.166;2023-02-14T06:21:29;59.57;;;25.17;;
3847;SDS011;1939;48.720;9.166;2023-02-14T06:23:54;54.60;;;23.40;;
3847;SDS011;1939;48.720;9.166;2023-02-14T06:26:19;52.33;;;20.20;;
3847;SDS011;1939;48.720;9.166;2023-02-14T06:28:45;51.10;;;21.90;;
3847;SDS011;1939;48.720;9.166;2023-02-14T06:31:14;50.63;;;20.70;;
3847;SDS011;1939;48.720;9.166;2023-02-14T06:33:40;55.27;;;20.33;;
3847;SDS011;1939;48.720;9.166;2023-02-14T06:36:06;52.77;;;21.63;;
3847;SDS011;1939;48.720;9.166;2023-02-14T06:38:31;51.37;;;20.37;;
3847;SDS011;1939;48.720;9.166;2023-02-14T06:41:01;56.43;;;21.87;;
3847;SDS011;1939;48.720;9.166;2023-02-14T06:43:26;65.70;;;25.00;;
3847;SDS011;1939;48.720;9.166;2023-02-14T06:45:52;56.80;;;23.80;;
3847;SDS011;1939;48.720;9.166;2023-02-14T06:48:17;43.77;;;20.63;;
3847;SDS011;1939;48.720;9.166;2023-02-14T06:50:42;46.90;;;20.10;;
3847;SDS011;1939;48.720;9.166;2023-02-14T06:53:08;54.57;;;23.50;;
3847;SDS011;1939;48.720;9.166;2023-02-14T06:55:33;57.27;;;21.93;;
3847;SDS011;1939;48.720;9.166;2023-02-14T06:57:58;53.77;;;21.43;;
3847;SDS011;1939;48.720;9.166;2023-02-14T07:00:24;44.20;;;21.60;;
3847;SDS011;1939;48.720;9.166;2023-02-14T07:02:49;45.80;;;21.40;;
3847;SDS011;1939;48.720;9.166;2023-02-14T07:05:14;54.57;;;20.50;;
3847;SDS011;1939;48.720;9.166;2023-02-14T07:07:43;58.70;;;25.13;;
3847;SDS011;1939;48.720;9.166;2023-02-14T07:10:08;54.77;;;21.93;;
3847;SDS011;1939;48.720;9.166;2023-02-14T07:12:33;53.67;;;22.33;;
3847;SDS011;1939;48.720;9.166;2023-02-14T07:14:59;49.83;;;21.23;;
3847;SDS011;1939;48.720;9.166;2023-02-14T07:17:24;44.33;;;19.63;;
3847;SDS011;1939;48.720;9.166;2023-02-14T07:19:49;48.33;;;18.20;;
3847;SDS011;1939;48.720;9.166;2023-02-14T07:22:15;42.67;;;18.90;;
3847;SDS011;1939;48.720;9.166;2023-02-14T07:24:40;45.77;;;20.20;;
3847;SDS011;1939;48.720;9.166;2023-02-14T07:27:06;36.73;;;17.13;;
3847;SDS011;1939;48.720;9.166;2023-02-14T07:29:31;32.47;;;15.13;;
3847;SDS011;1939;48.720;9.166;2023-02-14T07:31:56;36.90;;;15.80;;
3847;SDS011;1939;48.720;9.166;2023-02-14T07:34:21;38.20;;;16.67;;
3847;SDS011;1939;48.720;9.166;2023-02-14T07:36:47;34.20;;;15.33;;
3847;SDS011;1939;48.720;9.166;2023-02-14T07:39:13;31.77;;;15.67;;
3847;SDS011;1939;48.720;9.166;2023-02-14T07:41:38;34.80;;;17.63;;
3847;SDS011;1939;48.720;9.166;2023-02-14T07:44:03;32.80;;;16.13;;
3847;SDS011;1939;48.720;9.166;2023-02-14T07:46:28;30.80;;;16.70;;
3847;SDS011;1939;48.720;9.166;2023-02-14T07:48:54;31.10;;;17.87;;
3847;SDS011;1939;48.720;9.166;2023-02-14T07:51:19;32.97;;;17.50;;
3847;SDS011;1939;48.720;9.166;2023-02-14T07:53:47;26.63;;;15.20;;
3847;SDS011;1939;48.720;9.166;2023-02-14T07:56:12;29.23;;;16.50;;
3847;SDS011;1939;48.720;9.166;2023-02-14T07:58:38;32.40;;;17.67;;
3847;SDS011;1939;48.720;9.166;2023-02-14T08:01:03;37.20;;;18.83;;
3847;SDS011;1939;48.720;9.166;2023-02-14T08:03:28;34.63;;;19.20;;
3847;SDS011;1939;48.720;9.166;2023-02-14T08:05:53;27.60;;;17.47;;
3847;SDS011;1939;48.720;9.166;2023-02-14T08:08:26;37.37;;;17.97;;
3847;SDS011;1939;48.720;9.166;2023-02-14T08:10:51;34.87;;;20.37;;
3847;SDS011;1939;48.720;9.166;2023-02-14T08:13:17;33.57;;;18.80;;
3847;SDS011;1939;48.720;9.166;2023-02-14T08:15:42;34.37;;;19.80;;
3847;SDS011;1939;48.720;9.166;2023-02-14T08:18:26;40.80;;;19.80;;
3847;SDS011;1939;48.720;9.166;2023-02-14T08:20:51;44.60;;;21.57;;
3847;SDS011;1939;48.720;9.166;2023-02-14T08:23:17;31.20;;;18.93;;
3847;SDS011;1939;48.720;9.166;2023-02-14T08:25:43;33.17;;;19.00;;
3847;SDS011;1939;48.720;9.166;2023-02-14T08:28:08;28.30;;;18.90;;
3847;SDS011;1939;48.720;9.166;2023-02-14T08:30:34;29.13;;;18.70;;
3847;SDS011;1939;48.720;9.166;2023-02-14T08:33:00;31.30;;;17.87;;
3847;SDS011;1939;48.720;9.166;2023-02-14T08:35:25;28.70;;;18.37;;
3847;SDS011;1939;48.720;9.166;2023-02-14T08:37:50;30.80;;;19.20;;
3847;SDS011;1939;48.720;9.166;2023-02-14T08:40:15;25.77;;;16.43;;
3847;SDS011;1939;48.720;9.166;2023-02-14T08:42:41;30.67;;;18.20;;
3847;SDS011;1939;48.720;9.166;2023-02-14T08:45:06;27.20;;;17.80;;
3847;SDS011;1939;48.720;9.166;2023-02-14T08:47:31;33.17;;;19.37;;
3847;SDS011;1939;48.720;9.166;2023-02-14T08:50:03;26.03;;;17.80;;
3847;SDS011;1939;48.720;9.166;2023-02-14T08:52:28;30.13;;;19.00;;
3847;SDS011;1939;48.720;9.166;2023-02-14T08:54:53;29.27;;;18.40;;
3847;SDS011;1939;48.720;9.166;2023-02-14T08:57:18;25.50;;;17.67;;
3847;SDS011;1939;48.720;9.166;2023-02-14T08:59:44;28.37;;;18.20;;
3847;SDS011;1939;48.720;9.166;2023-02-14T09:02:12;25.93;;;17.40;;
3847;SDS011;1939;48.720;9.166;2023-02-14T09:04:38;32.93;;;19.27;;
3847;SDS011;1939;48.720;9.166;2023-02-14T09:07:03;29.93;;;18.67;;
3847;SDS011;1939;48.720;9.166;2023-02-14T09:09:28;26.07;;;17.73;;
3847;SDS011;1939;48.720;9.166;2023-02-14T09:11:54;26.23;;;16.60;;
3847;SDS011;1939;48.720;9.166;2023-02-14T09:14:20;28.23;;;18.70;;
3847;SDS011;1939;48.720;9.166;2023-02-14T09:16:45;28.33;;;17.60;;
3847;SDS011;1939;48.720;9.166;2023-02-14T09:19:13;26.33;;;17.00;;
3847;SDS011;1939;48.720;9.166;2023-02-14T09:21:38;28.60;;;16.40;;
3847;SDS011;1939;48.720;9.166;2023-02-14T09:24:04;31.23;;;19.63;;
3847;SDS011;1939;48.720;9.166;2023-02-14T09:26:29;28.17;;;18.50;;
3847;SDS011;1939;48.720;9.166;2023-02-14T09:28:55;24.43;;;15.80;;
3847;SDS011;1939;48.720;9.166;2023-02-14T09:31:21;27.80;;;17.80;;
3847;SDS011;1939;48.720;9.166;2023-02-14T09:33:46;23.73;;;16.20;;
3847;SDS011;1939;48.720;9.166;2023-02-14T09:36:30;26.13;;;18.50;;
3847;SDS011;1939;48.720;9.166;2023-02-14T09:38:55;24.77;;;17.03;;
3847;SDS011;1939;48.720;9.166;2023-02-14T09:44:32;29.50;;;16.40;;
3847;SDS011;1939;48.720;9.166;2023-02-14T09:46:39;31.37;;;15.33;;
3847;SDS011;1939;48.720;9.166;2023-02-14T09:49:06;27.50;;;18.03;;
3847;SDS011;1939;48.720;9.166;2023-02-14T09:51:32;26.40;;;15.90;;
3847;SDS011;1939;48.720;9.166;2023-02-14T09:54:00;22.20;;;15.57;;
3847;SDS011;1939;48.720;9.166;2023-02-14T10:01:34;28.13;;;16.20;;
3847;SDS011;1939;48.720;9.166;2023-02-14T10:09:02;31.77;;;16.40;;
3847;SDS011;1939;48.720;9.166;2023-02-14T10:11:31;23.87;;;15.30;;
3847;SDS011;1939;48.720;9.166;2023-02-14T10:13:58;22.73;;;13.93;;
3847;SDS011;1939;48.720;9.166;2023-02-14T10:16:36;23.87;;;13.70;;
3847;SDS011;1939;48.720;9.166;2023-02-14T10:19:23;24.00;;;13.60;;
3847;SDS011;1939;48.720;9.166;2023-02-14T10:21:52;27.47;;;14.80;;
3847;SDS011;1939;48.720;9.166;2023-02-14T10:24:25;29.10;;;14.50;;
3847;SDS011;1939;48.720;9.166;2023-02-14T10:26:52;22.40;;;13.00;;
3847;SDS011;1939;48.720;9.166;2023-02-14T10:29:21;24.30;;;14.13;;
3847;SDS011;1939;48.720;9.166;2023-02-14T10:31:49;22.93;;;13.53;;
3847;SDS011;1939;48.720;9.166;2023-02-14T10:42:03;21.93;;;12.93;;
3847;SDS011;1939;48.720;9.166;2023-02-14T10:50:02;25.57;;;14.07;;
3847;SDS011;1939;48.720;9.166;2023-02-14T10:52:42;21.37;;;13.10;;
3847;SDS011;1939;48.720;9.166;2023-02-14T10:55:20;22.33;;;14.03;;
3847;SDS011;1939;48.720;9.166;2023-02-14T10:57:47;22.60;;;12.70;;
3847;SDS011;1939;48.720;9.166;2023-02-14T11:00:24;25.17;;;12.93;;
3847;SDS011;1939;48.720;9.166;2023-02-14T11:02:55;22.77;;;12.60;;
3847;SDS011;1939;48.720;9.166;2023-02-14T11:05:29;23.00;;;13.87;;
3847;SDS011;1939;48.720;9.166;2023-02-14T11:07:55;19.93;;;12.20;;
3847;SDS011;1939;48.720;9.166;2023-02-14T11:10:24;22.60;;;13.20;;
3847;SDS011;1939;48.720;9.166;2023-02-14T11:12:50;18.90;;;11.60;;
3847;SDS011;1939;48.720;9.166;2023-02-14T11:17:40;19.27;;;13.30;;
3847;SDS011;1939;48.720;9.166;2023-02-14T11:20:23;20.13;;;12.60;;
3847;SDS011;1939;48.720;9.166;2023-02-14T11:22:48;22.80;;;13.50;;
3847;SDS011;1939;48.720;9.166;2023-02-14T11:25:18;19.20;;;13.60;;
3847;SDS011;1939;48.720;9.166;2023-02-14T11:27:44;23.47;;;14.07;;
3847;SDS011;1939;48.720;9.166;2023-02-14T11:30:25;21.10;;;13.63;;
3847;SDS011;1939;48.720;9.166;2023-02-14T11:32:51;22.37;;;13.20;;
3847;SDS011;1939;48.720;9.166;2023-02-14T11:35:20;21.60;;;12.00;;
3847;SDS011;1939;48.720;9.166;2023-02-14T11:37:49;18.27;;;11.70;;
3847;SDS011;1939;48.720;9.166;2023-02-14T11:40:25;19.73;;;13.00;;
3847;SDS011;1939;48.720;9.166;2023-02-14T11:42:51;20.23;;;12.93;;
3847;SDS011;1939;48.720;9.166;2023-02-14T11:45:26;20.63;;;12.87;;
3847;SDS011;1939;48.720;9.166;2023-02-14T11:50:36;20.93;;;12.70;;
3847;SDS011;1939;48.720;9.166;2023-02-14T11:53:02;22.37;;;14.23;;
3847;SDS011;1939;48.720;9.166;2023-02-14T11:55:31;20.50;;;12.27;;
3847;SDS011;1939;48.720;9.166;2023-02-14T11:58:00;18.77;;;12.70;;
3847;SDS011;1939;48.720;9.166;2023-02-14T12:00:26;20.03;;;12.60;;
3847;SDS011;1939;48.720;9.166;2023-02-14T12:02:53;18.90;;;12.40;;
3847;SDS011;1939;48.720;9.166;2023-02-14T12:07:44;22.20;;;12.60;;
3847;SDS011;1939;48.720;9.166;2023-02-14T12:12:50;20.20;;;12.33;;
3847;SDS011;1939;48.720;9.166;2023-02-14T12:17:59;22.10;;;13.77;;
3847;SDS011;1939;48.720;9.166;2023-02-14T12:20:34;21.63;;;12.83;;
3847;SDS011;1939;48.720;9.166;2023-02-14T12:23:00;20.17;;;12.30;;
3847;SDS011;1939;48.720;9.166;2023-02-14T12:25:33;19.40;;;12.17;;
3847;SDS011;1939;48.720;9.166;2023-02-14T12:28:03;22.50;;;13.30;;
3847;SDS011;1939;48.720;9.166;2023-02-14T12:30:31;20.63;;;12.17;;
3847;SDS011;1939;48.720;9.166;2023-02-14T12:32:56;19.53;;;12.00;;
3847;SDS011;1939;48.720;9.166;2023-02-14T12:38:10;19.10;;;11.40;;
3847;SDS011;1939;48.720;9.166;2023-02-14T12:45:57;18.43;;;12.80;;
3847;SDS011;1939;48.720;9.166;2023-02-14T13:06:27;31.23;;;12.30;;
3847;SDS011;1939;48.720;9.166;2023-02-14T13:19:45;20.70;;;12.93;;
3847;SDS011;1939;48.720;9.166;2023-02-14T13:21:44;21.13;;;13.17;;
3847;SDS011;1939;48.720;9.166;2023-02-14T13:24:15;19.43;;;12.20;;
3847;SDS011;1939;48.720;9.166;2023-02-14T13:26:42;19.80;;;12.67;;
3847;SDS011;1939;48.720;9.166;2023-02-14T13:29:18;17.97;;;11.73;;
3847;SDS011;1939;48.720;9.166;2023-02-14T13:31:44;19.00;;;12.90;;
3847;SDS011;1939;48.720;9.166;2023-02-14T13:36:47;19.63;;;11.53;;
3847;SDS011;1939;48.720;9.166;2023-02-14T13:39:17;19.20;;;12.70;;
3847;SDS011;1939;48.720;9.166;2023-02-14T13:41:45;22.40;;;12.67;;
3847;SDS011;1939;48.720;9.166;2023-02-14T13:44:10;19.80;;;14.17;;
3847;SDS011;1939;48.720;9.166;2023-02-14T13:46:45;22.80;;;14.43;;
3847;SDS011;1939;48.720;9.166;2023-02-14T13:51:53;29.43;;;13.67;;
3847;SDS011;1939;48.720;9.166;2023-02-14T13:54:32;18.77;;;13.10;;
3847;SDS011;1939;48.720;9.166;2023-02-14T13:57:02;22.70;;;14.00;;
3847;SDS011;1939;48.720;9.166;2023-02-14T13:59:29;24.50;;;15.60;;
3847;SDS011;1939;48.720;9.166;2023-02-14T14:01:55;27.77;;;15.70;;
3847;SDS011;1939;48.720;9.166;2023-02-14T14:04:32;36.30;;;16.93;;
3847;SDS011;1939;48.720;9.166;2023-02-14T14:17:34;34.63;;;16.70;;
3847;SDS011;1939;48.720;9.166;2023-02-14T14:20:00;27.03;;;15.00;;
3847;SDS011;1939;48.720;9.166;2023-02-14T14:22:26;27.43;;;15.83;;
3847;SDS011;1939;48.720;9.166;2023-02-14T14:24:56;29.43;;;16.13;;
3847;SDS011;1939;48.720;9.166;2023-02-14T14:27:23;33.47;;;18.30;;
3847;SDS011;1939;48.720;9.166;2023-02-14T14:29:50;30.23;;;17.67;;
3847;SDS011;1939;48.720;9.166;2023-02-14T14:32:35;34.63;;;19.60;;
3847;SDS011;1939;48.720;9.166;2023-02-14T14:37:33;27.40;;;16.70;;
3847;SDS011;1939;48.720;9.166;2023-02-14T14:39:59;31.73;;;16.50;;
3847;SDS011;1939;48.720;9.166;2023-02-14T14:42:26;23.20;;;15.70;;
3847;SDS011;1939;48.720;9.166;2023-02-14T14:44:53;28.33;;;17.40;;
3847;SDS011;1939;48.720;9.166;2023-02-14T14:47:24;30.90;;;16.57;;
3847;SDS011;1939;48.720;9.166;2023-02-14T14:49:50;33.40;;;17.30;;
3847;SDS011;1939;48.720;9.166;2023-02-14T14:52:50;29.17;;;16.23;;
3847;SDS011;1939;48.720;9.166;2023-02-14T14:55:13;32.40;;;15.93;;
3847;SDS011;1939;48.720;9.166;2023-02-14T14:57:40;32.10;;;18.00;;
3847;SDS011;1939;48.720;9.166;2023-02-14T15:00:19;28.67;;;15.27;;
3847;SDS011;1939;48.720;9.166;2023-02-14T15:02:56;31.30;;;18.00;;
3847;SDS011;1939;48.720;9.166;2023-02-14T15:05:24;27.17;;;15.60;;
3847;SDS011;1939;48.720;9.166;2023-02-14T15:07:49;30.00;;;17.47;;
3847;SDS011;1939;48.720;9.166;2023-02-14T15:10:22;37.70;;;18.50;;
3847;SDS011;1939;48.720;9.166;2023-02-14T15:12:48;25.23;;;16.77;;
3847;SDS011;1939;48.720;9.166;2023-02-14T15:15:33;26.37;;;16.60;;
3847;SDS011;1939;48.720;9.166;2023-02-14T15:17:58;29.50;;;17.13;;
3847;SDS011;1939;48.720;9.166;2023-02-14T15:20:27;29.43;;;17.13;;
3847;SDS011;1939;48.720;9.166;2023-02-14T15:22:52;38.70;;;18.80;;
3847;SDS011;1939;48.720;9.166;2023-02-14T15:25:19;32.60;;;17.47;;
3847;SDS011;1939;48.720;9.166;2023-02-14T15:27:44;33.40;;;18.10;;
3847;SDS011;1939;48.720;9.166;2023-02-14T15:32:41;37.73;;;18.20;;
3847;SDS011;1939;48.720;9.166;2023-02-14T15:35:06;36.27;;;18.30;;
3847;SDS011;1939;48.720;9.166;2023-02-14T15:37:34;31.90;;;18.63;;
3847;SDS011;1939;48.720;9.166;2023-02-14T15:39:59;37.77;;;20.23;;
3847;SDS011;1939;48.720;9.166;2023-02-14T15:42:26;35.77;;;20.93;;
3847;SDS011;1939;48.720;9.166;2023-02-14T15:47:40;35.70;;;17.87;;
3847;SDS011;1939;48.720;9.166;2023-02-14T15:50:13;37.23;;;17.47;;
3847;SDS011;1939;48.720;9.166;2023-02-14T15:52:39;31.67;;;18.10;;
3847;SDS011;1939;48.720;9.166;2023-02-14T15:55:06;32.10;;;18.60;;
3847;SDS011;1939;48.720;9.166;2023-02-14T15:57:32;31.67;;;17.17;;
3847;SDS011;1939;48.720;9.166;2023-02-14T15:59:58;31.43;;;18.00;;
3847;SDS011;1939;48.720;9.166;2023-02-14T16:02:28;51.00;;;18.93;;
3847;SDS011;1939;48.720;9.166;2023-02-14T16:05:01;36.63;;;18.30;;
3847;SDS011;1939;48.720;9.166;2023-02-14T16:07:27;35.97;;;19.70;;
3847;SDS011;1939;48.720;9.166;2023-02-14T16:12:36;34.33;;;18.77;;
3847;SDS011;1939;48.720;9.166;2023-02-14T16:15:15;37.13;;;20.67;;
3847;SDS011;1939;48.720;9.166;2023-02-14T16:17:41;44.77;;;21.43;;
3847;SDS011;1939;48.720;9.166;2023-02-14T16:20:26;36.93;;;20.20;;
3847;SDS011;1939;48.720;9.166;2023-02-14T16:22:52;49.20;;;20.73;;
3847;SDS011;1939;48.720;9.166;2023-02-14T16:25:17;33.67;;;19.00;;
3847;SDS011;1939;48.720;9.166;2023-02-14T16:27:43;34.03;;;19.63;;
3847;SDS011;1939;48.720;9.166;2023-02-14T16:30:17;36.63;;;19.53;;
3847;SDS011;1939;48.720;9.166;2023-02-14T16:32:46;31.27;;;17.67;;
3847;SDS011;1939;48.720;9.166;2023-02-14T16:35:16;38.33;;;19.03;;
3847;SDS011;1939;48.720;9.166;2023-02-14T16:37:42;38.23;;;20.70;;
3847;SDS011;1939;48.720;9.166;2023-02-14T16:40:10;54.60;;;22.20;;
3847;SDS011;1939;48.720;9.166;2023-02-14T16:42:37;41.17;;;20.17;;
3847;SDS011;1939;48.720;9.166;2023-02-14T16:45:03;45.60;;;20.90;;
3847;SDS011;1939;48.720;9.166;2023-02-14T16:47:28;40.97;;;21.47;;
3847;SDS011;1939;48.720;9.166;2023-02-14T16:49:53;48.00;;;23.10;;
3847;SDS011;1939;48.720;9.166;2023-02-14T16:52:19;44.77;;;20.37;;
3847;SDS011;1939;48.720;9.166;2023-02-14T16:54:45;43.33;;;20.63;;
3847;SDS011;1939;48.720;9.166;2023-02-14T16:57:15;43.43;;;20.80;;
3847;SDS011;1939;48.720;9.166;2023-02-14T16:59:45;34.07;;;19.43;;
3847;SDS011;1939;48.720;9.166;2023-02-14T17:02:12;36.10;;;20.87;;
3847;SDS011;1939;48.720;9.166;2023-02-14T17:04:40;41.73;;;20.27;;
3847;SDS011;1939;48.720;9.166;2023-02-14T17:07:08;48.97;;;20.67;;
3847;SDS011;1939;48.720;9.166;2023-02-14T17:09:38;43.23;;;21.23;;
3847;SDS011;1939;48.720;9.166;2023-02-14T17:12:13;52.90;;;18.70;;
3847;SDS011;1939;48.720;9.166;2023-02-14T17:14:43;41.00;;;20.50;;